Time;durP1;ratioP1;P1;durP2;ratioP2;P2;SDS_P1;SDS_P2;PMS_P1;PMS_P2;Temp;Humidity;BMP_temperature;BMP_pressure;BME280_temperature;BME280_humidity;BME280_pressure;Samples;Min_cycle;Max_cycle;Signal;HPM_P1;HPM_P2
2024/01/30 00:01:53;;;;;;;26.80;16.63;;;6.70;99.90;;;;;;5019844;28;20136;-70
2024/01/30 00:04:19;;;;;;;23.50;15.65;;;7.30;99.90;;;;;;5024785;28;20525;-70
2024/01/30 00:06:45;;;;;;;27.02;17.25;;;7.00;99.90;;;;;;5025272;28;20045;-70
2024/01/30 00:09:11;;;;;;;25.98;16.90;;;6.70;99.90;;;;;;5022309;28;20458;-70
2024/01/30 00:11:40;;;;;;;26.33;17.13;;;6.70;99.90;;;;;;5022734;28;20164;-70
2024/01/30 00:14:05;;;;;;;26.98;16.77;;;6.90;99.90;;;;;;5022857;28;20502;-70
2024/01/30 00:16:31;;;;;;;27.23;17.13;;;7.00;99.90;;;;;;5023368;28;20106;-70
2024/01/30 00:18:58;;;;;;;33.35;16.88;;;6.60;99.90;;;;;;5005928;28;20502;-70
2024/01/30 00:21:25;;;;;;;24.60;16.73;;;6.60;99.90;;;;;;5006098;28;20046;-70
2024/01/30 00:23:54;;;;;;;26.63;16.98;;;6.60;99.90;;;;;;5022712;28;20053;-70
2024/01/30 00:26:20;;;;;;;27.00;17.17;;;6.60;99.90;;;;;;5022860;28;20033;-71
2024/01/30 00:28:46;;;;;;;29.00;16.10;;;6.60;99.90;;;;;;5022444;28;20900;-71
2024/01/30 00:31:12;;;;;;;27.25;16.27;;;6.60;99.90;;;;;;5021118;28;20461;-71
2024/01/30 00:33:39;;;;;;;27.80;16.92;;;6.50;99.90;;;;;;5022064;28;20418;-71
2024/01/30 00:36:06;;;;;;;26.50;15.88;;;6.50;99.90;;;;;;5022240;28;20050;-71
2024/01/30 00:38:32;;;;;;;27.25;15.93;;;6.50;99.90;;;;;;5020685;28;20097;-70
2024/01/30 00:40:58;;;;;;;24.08;16.15;;;6.50;99.90;;;;;;5020254;28;20053;-70
2024/01/30 00:43:26;;;;;;;27.45;17.50;;;6.50;99.90;;;;;;5023527;28;20044;-71
2024/01/30 00:45:52;;;;;;;29.67;17.65;;;6.50;99.90;;;;;;5022294;28;20045;-72
2024/01/30 00:48:18;;;;;;;28.30;17.05;;;6.40;99.90;;;;;;5022565;28;20041;-70
2024/01/30 00:50:44;;;;;;;28.70;17.30;;;6.40;99.90;;;;;;5021160;28;20049;-70
2024/01/30 00:53:10;;;;;;;25.85;16.30;;;6.50;99.90;;;;;;5023038;28;20049;-71
2024/01/30 00:55:36;;;;;;;29.55;17.58;;;6.40;99.90;;;;;;5003448;28;20060;-71
2024/01/30 00:58:02;;;;;;;29.40;16.70;;;6.40;99.90;;;;;;5022302;28;20045;-71
2024/01/30 01:00:29;;;;;;;28.15;17.17;;;6.40;99.90;;;;;;5020819;28;20160;-71
2024/01/30 01:02:59;;;;;;;28.67;17.40;;;6.40;99.90;;;;;;5022595;28;20061;-70
2024/01/30 01:05:25;;;;;;;28.92;17.85;;;6.40;99.90;;;;;;5022606;28;20076;-70
2024/01/30 01:07:51;;;;;;;29.73;17.67;;;6.40;99.90;;;;;;5021449;28;20057;-70
2024/01/30 01:10:18;;;;;;;29.80;18.15;;;6.40;99.90;;;;;;5023523;28;20045;-70
2024/01/30 01:12:45;;;;;;;27.50;17.02;;;6.30;99.90;;;;;;5024868;28;20049;-70
2024/01/30 01:15:12;;;;;;;31.38;17.52;;;6.30;99.90;;;;;;5004878;28;20077;-70
2024/01/30 01:17:39;;;;;;;27.35;17.40;;;6.30;99.90;;;;;;5020118;28;20037;-70
2024/01/30 01:20:06;;;;;;;28.73;17.75;;;6.30;99.90;;;;;;5017665;28;20057;-70
2024/01/30 01:22:32;;;;;;;28.50;17.67;;;6.30;99.90;;;;;;5021951;28;20088;-70
2024/01/30 01:24:58;;;;;;;27.15;17.88;;;6.70;99.90;;;;;;5002807;28;20136;-70
2024/01/30 01:27:24;;;;;;;29.77;17.48;;;6.30;99.90;;;;;;5019221;28;21690;-70
2024/01/30 01:29:51;;;;;;;26.13;17.88;;;6.30;99.90;;;;;;5021231;28;20056;-70
2024/01/30 01:32:17;;;;;;;28.10;17.30;;;6.30;99.90;;;;;;5021290;28;20037;-70
2024/01/30 01:34:43;;;;;;;27.52;17.42;;;6.30;99.90;;;;;;5021712;28;20115;-70
2024/01/30 01:37:08;;;;;;;29.75;17.13;;;6.20;99.90;;;;;;5021386;28;20103;-70
2024/01/30 01:39:34;;;;;;;25.77;16.67;;;6.20;99.90;;;;;;5021437;28;20107;-70
2024/01/30 01:42:00;;;;;;;26.92;17.77;;;6.20;99.90;;;;;;5021411;28;20094;-70
2024/01/30 01:44:27;;;;;;;24.45;17.13;;;6.20;99.90;;;;;;5049933;28;20034;-70
2024/01/30 01:46:54;;;;;;;27.42;17.63;;;6.20;99.90;;;;;;5020892;28;20120;-70
2024/01/30 01:49:23;;;;;;;25.52;17.55;;;6.20;99.90;;;;;;5021910;28;20044;-70
2024/01/30 01:51:53;;;;;;;28.27;17.75;;;6.20;99.90;;;;;;5004266;28;20124;-70
2024/01/30 01:54:19;;;;;;;30.10;17.98;;;6.20;99.90;;;;;;5021374;28;20131;-70
2024/01/30 01:56:45;;;;;;;28.38;19.00;;;6.20;99.90;;;;;;5020022;28;20076;-70
2024/01/30 01:59:11;;;;;;;29.10;17.88;;;6.20;99.90;;;;;;5022729;28;20506;-70
2024/01/30 02:01:37;;;;;;;28.60;18.27;;;6.30;99.90;;;;;;5003253;28;20060;-69
2024/01/30 02:04:04;;;;;;;29.67;17.60;;;6.20;99.90;;;;;;5027288;28;20517;-70
2024/01/30 02:06:30;;;;;;;27.88;18.02;;;6.20;99.90;;;;;;5019661;28;20042;-69
2024/01/30 02:08:55;;;;;;;29.52;18.02;;;6.20;99.90;;;;;;5020132;28;20042;-69
2024/01/30 02:11:23;;;;;;;34.00;19.80;;;6.20;99.90;;;;;;5004700;28;20045;-70
2024/01/30 02:13:50;;;;;;;28.45;18.75;;;6.20;99.90;;;;;;5001280;28;20511;-69
2024/01/30 02:16:19;;;;;;;28.05;18.73;;;6.20;99.90;;;;;;5018739;28;20596;-70
2024/01/30 02:18:48;;;;;;;30.42;18.95;;;6.20;99.90;;;;;;5004898;28;20053;-70
2024/01/30 02:21:17;;;;;;;30.88;19.30;;;6.30;99.90;;;;;;5019844;28;20473;-70
2024/01/30 02:23:50;;;;;;;32.92;18.60;;;6.20;99.90;;;;;;5022076;28;20072;-70
2024/01/30 02:26:16;;;;;;;27.63;17.73;;;6.20;99.90;;;;;;5043305;28;20044;-70
2024/01/30 02:28:42;;;;;;;27.40;18.13;;;6.20;99.90;;;;;;5021459;28;20045;-70
2024/01/30 02:31:07;;;;;;;32.88;19.02;;;6.60;99.90;;;;;;5005847;28;20045;-69
2024/01/30 02:33:33;;;;;;;28.77;17.80;;;6.20;99.90;;;;;;5019028;28;20068;-70
2024/01/30 02:35:59;;;;;;;26.58;17.63;;;6.20;99.90;;;;;;5018653;28;20037;-70
2024/01/30 02:38:26;;;;;;;26.08;17.58;;;6.20;99.90;;;;;;5019388;28;20041;-69
2024/01/30 02:40:52;;;;;;;28.77;18.23;;;6.20;99.90;;;;;;5020447;28;20247;-69
2024/01/30 02:43:18;;;;;;;30.30;18.70;;;6.20;99.90;;;;;;5000122;28;20044;-70
2024/01/30 02:45:43;;;;;;;27.17;18.52;;;6.30;99.90;;;;;;5019004;28;20069;-70
2024/01/30 02:48:09;;;;;;;28.05;18.45;;;6.50;99.90;;;;;;5017737;28;20042;-70
2024/01/30 02:50:35;;;;;;;30.73;19.23;;;6.30;99.90;;;;;;5017883;28;20049;-70
2024/01/30 02:53:01;;;;;;;25.80;17.27;;;6.30;99.90;;;;;;5019869;28;20044;-70
2024/01/30 02:55:26;;;;;;;32.00;18.95;;;6.40;99.90;;;;;;5015111;28;20049;-70
2024/01/30 02:57:52;;;;;;;30.20;18.95;;;6.40;99.90;;;;;;4998055;28;20053;-70
2024/01/30 03:00:19;;;;;;;26.85;17.45;;;6.40;99.90;;;;;;5018705;28;20398;-69
2024/01/30 03:02:45;;;;;;;28.23;18.45;;;6.40;99.90;;;;;;5020312;28;20135;-70
2024/01/30 03:05:11;;;;;;;29.33;18.05;;;6.40;99.90;;;;;;5020644;28;20614;-69
2024/01/30 03:07:37;;;;;;;27.02;16.88;;;6.40;99.90;;;;;;5021221;28;20060;-69
2024/01/30 03:10:04;;;;;;;28.67;17.98;;;6.40;99.90;;;;;;5020844;28;20046;-70
2024/01/30 03:12:30;;;;;;;26.75;16.98;;;6.40;99.90;;;;;;5019286;28;20048;-70
2024/01/30 03:14:55;;;;;;;30.58;17.55;;;6.40;99.90;;;;;;5019998;28;20049;-69
2024/01/30 03:17:21;;;;;;;26.42;16.80;;;6.40;99.90;;;;;;5018401;28;20072;-69
2024/01/30 03:19:47;;;;;;;30.70;18.17;;;6.40;99.90;;;;;;5017087;28;20592;-69
2024/01/30 03:22:13;;;;;;;29.90;18.05;;;6.60;99.90;;;;;;5019924;28;20490;-69
2024/01/30 03:24:39;;;;;;;27.73;17.50;;;6.40;99.90;;;;;;5024866;28;20050;-69
2024/01/30 03:27:04;;;;;;;27.13;16.17;;;6.40;99.90;;;;;;5038451;28;20055;-70
2024/01/30 03:29:30;;;;;;;26.35;16.50;;;6.40;99.90;;;;;;5023216;28;20037;-71
2024/01/30 03:31:56;;;;;;;29.17;17.10;;;6.40;99.90;;;;;;5009489;28;20132;-69
2024/01/30 03:34:21;;;;;;;26.42;16.98;;;6.40;99.90;;;;;;5007257;28;20041;-68
2024/01/30 03:36:47;;;;;;;27.15;16.88;;;6.60;99.90;;;;;;5022107;28;20144;-68
2024/01/30 03:39:12;;;;;;;28.20;17.40;;;6.50;99.90;;;;;;5024605;28;20069;-71
2024/01/30 03:41:41;;;;;;;31.85;17.63;;;6.50;99.90;;;;;;5022022;28;20052;-70
2024/01/30 03:44:07;;;;;;;29.65;17.80;;;6.50;99.90;;;;;;5021122;28;20068;-68
2024/01/30 03:46:32;;;;;;;24.85;16.08;;;6.50;99.90;;;;;;5004280;28;20046;-69
2024/01/30 03:48:58;;;;;;;27.40;17.13;;;6.50;99.90;;;;;;5023884;28;20052;-69
2024/01/30 03:51:24;;;;;;;29.77;18.15;;;6.60;99.90;;;;;;4999695;28;20096;-69
2024/01/30 03:53:51;;;;;;;22.50;15.95;;;6.50;99.90;;;;;;5025930;28;20121;-70
2024/01/30 03:56:17;;;;;;;29.00;17.30;;;6.60;99.90;;;;;;5025287;28;20795;-70
2024/01/30 03:58:42;;;;;;;25.98;16.70;;;6.50;99.90;;;;;;5023547;28;20053;-70
2024/01/30 04:01:14;;;;;;;23.17;15.25;;;6.60;99.90;;;;;;5023546;28;20621;-70
2024/01/30 04:03:41;;;;;;;24.73;16.02;;;6.50;99.90;;;;;;5022300;28;20049;-69
2024/01/30 04:06:07;;;;;;;24.88;16.70;;;6.60;99.90;;;;;;5021643;28;20041;-71
2024/01/30 04:08:33;;;;;;;25.90;16.92;;;6.60;99.90;;;;;;5023385;28;20053;-69
2024/01/30 04:10:59;;;;;;;28.02;17.02;;;6.60;99.90;;;;;;5024819;28;20045;-70
2024/01/30 04:13:24;;;;;;;23.10;15.55;;;6.60;99.90;;;;;;5022431;28;20052;-70
2024/01/30 04:15:50;;;;;;;24.75;15.50;;;6.60;99.90;;;;;;5009776;28;20046;-70
2024/01/30 04:18:16;;;;;;;27.75;16.50;;;5.90;99.90;;;;;;5025021;28;20060;-70
2024/01/30 04:20:42;;;;;;;26.63;15.32;;;6.60;99.90;;;;;;5007438;28;20046;-70
2024/01/30 04:23:08;;;;;;;26.70;16.45;;;6.60;99.90;;;;;;5006591;28;20096;-70
2024/01/30 04:25:33;;;;;;;22.05;15.18;;;6.60;99.90;;;;;;5020842;28;20053;-69
2024/01/30 04:27:59;;;;;;;24.65;16.33;;;6.70;99.90;;;;;;5022218;28;20056;-68
2024/01/30 04:30:25;;;;;;;22.50;15.63;;;6.70;99.90;;;;;;5023850;28;20068;-70
2024/01/30 04:32:50;;;;;;;23.70;14.65;;;6.70;99.90;;;;;;5022418;28;20227;-69
2024/01/30 04:35:16;;;;;;;24.40;16.00;;;6.70;99.90;;;;;;5023498;28;20296;-69
2024/01/30 04:37:42;;;;;;;26.23;16.05;;;6.70;99.90;;;;;;5021398;28;20045;-70
2024/01/30 04:40:09;;;;;;;28.55;15.52;;;6.70;99.90;;;;;;5023230;28;20076;-69
2024/01/30 04:42:35;;;;;;;26.45;16.05;;;6.70;99.90;;;;;;5002513;28;20471;-69
2024/01/30 04:45:00;;;;;;;23.70;15.00;;;6.70;99.90;;;;;;5000773;28;20037;-69
2024/01/30 04:47:26;;;;;;;26.63;15.88;;;6.70;99.90;;;;;;5020419;28;20099;-70
2024/01/30 04:49:52;;;;;;;25.35;15.20;;;6.90;99.90;;;;;;5022481;28;20052;-69
2024/01/30 04:52:18;;;;;;;26.15;15.15;;;6.70;99.90;;;;;;5021524;28;20067;-69
2024/01/30 04:54:43;;;;;;;34.17;15.82;;;6.70;99.90;;;;;;5006066;28;20152;-70
2024/01/30 04:57:12;;;;;;;22.85;14.40;;;6.70;99.90;;;;;;5037200;28;20048;-69
2024/01/30 04:59:37;;;;;;;24.92;14.82;;;6.80;99.90;;;;;;5019800;28;20120;-70
2024/01/30 05:02:03;;;;;;;24.70;14.85;;;6.80;99.90;;;;;;5020546;28;20117;-70
2024/01/30 05:04:28;;;;;;;23.95;14.57;;;6.80;99.90;;;;;;5022533;28;20057;-69
2024/01/30 05:06:54;;;;;;;24.02;14.85;;;7.00;99.90;;;;;;5004405;28;20045;-70
2024/01/30 05:09:22;;;;;;;24.15;14.30;;;6.80;99.90;;;;;;5020609;28;20056;-70
2024/01/30 05:11:48;;;;;;;22.13;14.55;;;6.80;99.90;;;;;;5019050;28;20053;-70
2024/01/30 05:14:15;;;;;;;22.88;14.88;;;6.80;99.90;;;;;;5033995;28;20058;-69
2024/01/30 05:16:46;;;;;;;22.27;14.13;;;6.80;99.90;;;;;;5002432;28;20763;-69
2024/01/30 05:19:13;;;;;;;;;;;6.80;99.90;;;;;;5020593;28;20123;-70
2024/01/30 05:21:38;;;;;;;22.65;13.27;;;6.90;99.90;;;;;;5021415;28;20414;-70
2024/01/30 05:24:04;;;;;;;21.83;13.50;;;7.00;99.90;;;;;;5002149;28;20103;-70
2024/01/30 05:26:30;;;;;;;22.35;13.38;;;6.90;99.90;;;;;;5018657;28;20037;-70
2024/01/30 05:28:56;;;;;;;22.95;13.95;;;6.90;99.90;;;;;;5020611;28;20065;-70
2024/01/30 05:31:22;;;;;;;21.25;14.27;;;6.90;99.90;;;;;;5020247;28;20061;-69
2024/01/30 05:33:47;;;;;;;22.15;14.02;;;6.90;99.90;;;;;;5022523;28;20072;-70
2024/01/30 05:36:13;;;;;;;25.02;14.20;;;6.90;99.90;;;;;;5020590;28;20076;-70
2024/01/30 05:38:39;;;;;;;23.65;14.40;;;6.90;99.90;;;;;;5022773;28;20536;-70
2024/01/30 05:41:05;;;;;;;20.23;13.27;;;7.30;99.90;;;;;;5004157;28;21131;-70
2024/01/30 05:43:31;;;;;;;21.70;14.20;;;6.90;99.90;;;;;;5002584;28;20103;-70
2024/01/30 05:45:57;;;;;;;22.77;12.82;;;6.90;99.90;;;;;;5022260;28;20060;-69
2024/01/30 05:48:22;;;;;;;21.02;13.68;;;7.20;99.90;;;;;;5017933;28;20049;-70
2024/01/30 05:50:48;;;;;;;21.52;13.40;;;6.90;99.90;;;;;;5020634;28;20203;-69
2024/01/30 05:53:14;;;;;;;19.58;13.75;;;6.90;99.90;;;;;;5024144;28;20711;-70
2024/01/30 05:55:40;;;;;;;22.55;13.65;;;7.00;99.90;;;;;;5018458;28;20053;-70
2024/01/30 05:58:06;;;;;;;24.25;13.63;;;7.00;99.90;;;;;;5021426;28;20501;-70
2024/01/30 06:00:31;;;;;;;21.75;13.52;;;7.00;99.90;;;;;;5017194;28;20037;-70
2024/01/30 06:02:57;;;;;;;21.65;13.48;;;7.00;99.90;;;;;;5008541;28;20045;-69
2024/01/30 06:05:23;;;;;;;23.70;14.38;;;7.00;99.90;;;;;;5021009;28;20120;-70
2024/01/30 06:07:49;;;;;;;19.42;12.48;;;7.10;99.90;;;;;;5020151;28;20128;-70
2024/01/30 06:10:14;;;;;;;19.40;13.10;;;7.00;99.90;;;;;;5005018;28;20037;-70
2024/01/30 06:12:40;;;;;;;24.55;13.75;;;7.00;99.90;;;;;;5003917;28;20710;-69
2024/01/30 06:15:06;;;;;;;20.85;13.50;;;7.30;99.90;;;;;;5020870;28;20045;-69
2024/01/30 06:17:32;;;;;;;22.73;13.75;;;7.00;99.90;;;;;;5018736;28;20076;-69
2024/01/30 06:19:59;;;;;;;22.50;13.45;;;7.10;99.90;;;;;;5000781;28;20495;-71
2024/01/30 06:22:25;;;;;;;21.63;13.48;;;7.10;99.90;;;;;;5009167;28;20061;-70
2024/01/30 06:24:53;;;;;;;23.23;13.30;;;7.10;99.90;;;;;;5015895;28;20403;-70
2024/01/30 06:27:19;;;;;;;20.98;13.73;;;7.00;99.90;;;;;;5022878;28;20042;-70
2024/01/30 06:29:44;;;;;;;22.77;13.50;;;7.20;99.90;;;;;;5016743;28;20106;-69
2024/01/30 06:32:10;;;;;;;18.75;12.55;;;7.10;99.90;;;;;;5000955;28;20326;-69
2024/01/30 06:34:36;;;;;;;24.63;13.27;;;7.50;99.90;;;;;;5017072;28;20069;-69
2024/01/30 06:37:02;;;;;;;25.40;13.85;;;7.20;99.90;;;;;;5014217;28;20064;-70
2024/01/30 06:39:28;;;;;;;22.27;13.57;;;7.20;99.90;;;;;;5012601;28;20053;-69
2024/01/30 06:41:53;;;;;;;20.55;13.57;;;7.20;99.90;;;;;;5008309;28;20053;-70
2024/01/30 06:44:19;;;;;;;24.13;13.32;;;7.20;99.90;;;;;;5003887;28;20407;-70
2024/01/30 06:46:45;;;;;;;20.75;13.27;;;7.20;99.90;;;;;;5011946;28;20040;-69
2024/01/30 06:49:10;;;;;;;22.55;13.57;;;7.30;99.90;;;;;;5017626;28;20597;-69
2024/01/30 06:51:36;;;;;;;23.05;13.45;;;7.30;99.90;;;;;;4986529;28;20406;-69
2024/01/30 06:54:02;;;;;;;24.52;14.15;;;7.60;99.90;;;;;;5002097;28;20045;-70
2024/01/30 06:56:28;;;;;;;21.77;12.90;;;7.30;99.90;;;;;;5006272;28;20057;-70
2024/01/30 06:58:54;;;;;;;19.92;13.13;;;7.30;99.90;;;;;;5027006;28;20058;-70
2024/01/30 07:01:19;;;;;;;22.90;13.80;;;7.30;99.90;;;;;;4994665;28;20495;-69
2024/01/30 07:03:46;;;;;;;24.20;12.52;;;7.90;99.90;;;;;;5025748;28;20061;-69
2024/01/30 07:06:11;;;;;;;23.50;13.38;;;6.80;99.90;;;;;;5005793;28;20060;-68
2024/01/30 07:08:38;;;;;;;20.70;12.77;;;7.30;99.90;;;;;;5004159;28;20041;-67
2024/01/30 07:11:05;;;;;;;18.50;11.73;;;7.80;99.90;;;;;;5030836;28;20430;-68
2024/01/30 07:13:32;;;;;;;23.35;13.38;;;7.30;99.90;;;;;;5009610;28;20061;-68
2024/01/30 07:15:57;;;;;;;23.88;13.45;;;7.30;99.90;;;;;;5016347;28;20041;-68
2024/01/30 07:18:23;;;;;;;21.13;12.88;;;7.30;99.90;;;;;;4994795;28;20733;-68
2024/01/30 07:20:49;;;;;;;21.10;12.45;;;7.30;99.90;;;;;;5013410;28;20038;-68
2024/01/30 07:23:17;;;;;;;25.35;13.02;;;7.30;99.90;;;;;;5014357;28;20041;-68
2024/01/30 07:25:48;;;;;;;25.60;13.60;;;7.30;99.90;;;;;;4999179;28;20042;-68
2024/01/30 07:28:18;;;;;;;21.95;13.02;;;7.90;99.90;;;;;;5008742;28;20514;-68
2024/01/30 07:30:43;;;;;;;19.90;12.88;;;7.30;99.90;;;;;;5019977;28;20099;-68
2024/01/30 07:33:09;;;;;;;24.65;13.65;;;7.30;99.90;;;;;;4998447;28;20046;-69
2024/01/30 07:35:36;;;;;;;21.30;13.38;;;7.30;99.90;;;;;;4996759;28;20045;-69
2024/01/30 07:38:02;;;;;;;24.95;12.77;;;7.40;99.90;;;;;;5003866;28;20122;-68
2024/01/30 07:40:28;;;;;;;21.85;12.85;;;7.40;99.90;;;;;;5005440;28;20061;-68
2024/01/30 07:42:54;;;;;;;21.00;13.20;;;7.30;99.90;;;;;;5002856;28;20144;-68
2024/01/30 07:45:22;;;;;;;21.48;13.00;;;7.40;99.90;;;;;;4986088;28;20498;-68
2024/01/30 07:47:51;;;;;;;22.40;13.52;;;7.40;99.90;;;;;;5009934;28;20128;-68
2024/01/30 07:50:17;;;;;;;20.27;12.95;;;7.40;99.90;;;;;;5014575;28;20054;-68
2024/01/30 07:52:43;;;;;;;25.10;13.20;;;7.40;99.90;;;;;;5003249;28;20526;-69
2024/01/30 07:55:09;;;;;;;19.83;12.35;;;7.40;99.90;;;;;;4986173;28;20427;-69
2024/01/30 07:57:35;;;;;;;22.05;12.80;;;7.40;99.90;;;;;;5006135;28;20052;-68
2024/01/30 08:00:07;;;;;;;20.50;11.68;;;7.40;99.90;;;;;;4989262;28;20633;-68
2024/01/30 08:02:32;;;;;;;21.27;12.65;;;7.40;99.90;;;;;;5005295;28;20530;-68
2024/01/30 08:04:58;;;;;;;23.38;12.95;;;7.40;99.90;;;;;;5006281;28;20053;-69
2024/01/30 08:07:24;;;;;;;22.30;12.98;;;7.50;99.90;;;;;;5036378;28;20052;-69
2024/01/30 08:09:53;;;;;;;21.67;12.88;;;7.50;99.90;;;;;;5009241;28;20659;-69
2024/01/30 08:12:19;;;;;;;24.15;12.38;;;7.50;99.90;;;;;;4999028;28;20138;-69
2024/01/30 08:14:44;;;;;;;19.17;12.95;;;7.50;99.90;;;;;;5010732;28;20054;-69
2024/01/30 08:17:10;;;;;;;20.98;12.75;;;7.60;99.90;;;;;;4992492;28;20304;-68
2024/01/30 08:19:36;;;;;;;20.92;12.50;;;7.50;99.90;;;;;;5008700;28;20046;-68
2024/01/30 08:22:01;;;;;;;19.27;12.35;;;7.50;99.90;;;;;;5010687;28;20054;-69
2024/01/30 08:24:27;;;;;;;22.48;12.77;;;7.50;99.90;;;;;;5010068;28;20049;-68
2024/01/30 08:26:53;;;;;;;22.20;13.30;;;8.00;99.90;;;;;;4999588;28;20056;-68
2024/01/30 08:29:18;;;;;;;20.60;11.95;;;7.50;99.90;;;;;;5008249;28;20056;-68
2024/01/30 08:31:46;;;;;;;19.02;11.80;;;7.60;99.90;;;;;;5021721;28;20572;-69
2024/01/30 08:34:12;;;;;;;18.60;12.45;;;7.50;99.90;;;;;;5002858;28;20401;-69
2024/01/30 08:36:37;;;;;;;20.27;11.80;;;8.00;99.90;;;;;;4989045;28;20058;-68
2024/01/30 08:39:05;;;;;;;20.52;11.25;;;7.60;99.90;;;;;;5000345;28;20103;-68
2024/01/30 08:41:30;;;;;;;19.40;11.90;;;7.60;99.90;;;;;;5007841;28;20046;-69
2024/01/30 08:43:56;;;;;;;20.98;12.27;;;7.70;99.90;;;;;;5009087;28;20052;-69
2024/01/30 08:46:22;;;;;;;17.13;11.68;;;7.70;99.90;;;;;;5006967;28;20041;-69
2024/01/30 08:48:48;;;;;;;20.77;12.25;;;7.70;99.90;;;;;;5008417;28;20387;-68
2024/01/30 08:51:15;;;;;;;16.42;11.07;;;7.70;99.90;;;;;;5007472;28;20834;-69
2024/01/30 08:53:40;;;;;;;19.80;11.93;;;7.70;99.90;;;;;;5007842;28;20334;-72
2024/01/30 08:56:07;;;;;;;18.70;12.10;;;7.70;99.90;;;;;;5007073;28;20092;-68
2024/01/30 08:58:33;;;;;;;17.55;11.13;;;7.80;99.90;;;;;;4990551;28;20524;-68
2024/01/30 09:00:59;;;;;;;23.92;11.48;;;7.80;99.90;;;;;;5007726;28;20140;-68
2024/01/30 09:03:24;;;;;;;21.55;11.90;;;7.80;99.90;;;;;;5005297;28;20061;-68
2024/01/30 09:05:51;;;;;;;16.63;10.77;;;7.90;99.90;;;;;;5006998;28;20188;-68
2024/01/30 09:08:16;;;;;;;20.40;10.60;;;7.90;99.90;;;;;;5004083;28;20129;-69
2024/01/30 09:10:42;;;;;;;18.52;11.48;;;7.90;99.90;;;;;;5004495;28;20050;-69
2024/01/30 09:13:08;;;;;;;19.75;11.73;;;8.00;99.90;;;;;;4987006;28;20266;-69
2024/01/30 09:15:35;;;;;;;18.13;10.75;;;8.00;99.90;;;;;;4992322;28;20402;-68
2024/01/30 09:18:00;;;;;;;21.45;11.50;;;8.00;99.90;;;;;;4993214;28;20055;-69
2024/01/30 09:20:26;;;;;;;20.17;11.35;;;8.10;99.90;;;;;;5010136;28;20041;-69
2024/01/30 09:22:52;;;;;;;18.50;11.88;;;8.10;99.90;;;;;;5007431;28;20057;-69
2024/01/30 09:25:18;;;;;;;19.73;11.80;;;8.20;99.90;;;;;;5010420;28;20065;-68
2024/01/30 09:27:44;;;;;;;19.48;11.57;;;8.20;99.90;;;;;;5022215;28;20057;-67
2024/01/30 09:30:10;;;;;;;19.23;11.60;;;8.60;99.90;;;;;;5014438;28;20064;-69
2024/01/30 09:32:36;;;;;;;19.55;11.77;;;8.30;99.90;;;;;;5009048;28;20066;-69
2024/01/30 09:35:01;;;;;;;20.10;11.55;;;8.40;99.90;;;;;;5010509;28;20045;-68
2024/01/30 09:37:27;;;;;;;17.33;11.13;;;8.40;99.90;;;;;;5006087;28;21540;-69
2024/01/30 09:39:53;;;;;;;20.15;11.02;;;8.50;99.90;;;;;;4996113;28;20056;-68
2024/01/30 09:42:25;;;;;;;20.80;11.57;;;8.50;99.90;;;;;;4990025;28;20054;-69
2024/01/30 09:44:53;;;;;;;23.88;11.43;;;8.50;99.90;;;;;;4996616;28;20508;-69
2024/01/30 09:47:19;;;;;;;21.27;11.55;;;9.10;99.90;;;;;;5008752;28;20065;-68
2024/01/30 09:49:45;;;;;;;20.95;11.88;;;8.60;99.90;;;;;;5005236;28;21270;-69
2024/01/30 09:52:11;;;;;;;20.92;11.85;;;8.60;99.90;;;;;;5022155;28;20301;-68
2024/01/30 09:54:38;;;;;;;20.05;11.63;;;8.70;99.90;;;;;;5009806;28;20087;-68
2024/01/30 09:57:04;;;;;;;22.08;11.13;;;8.60;99.90;;;;;;5005953;28;20053;-68
2024/01/30 09:59:31;;;;;;;20.25;12.10;;;8.70;99.90;;;;;;5005415;28;20133;-68
2024/01/30 10:01:57;;;;;;;21.08;11.05;;;8.70;99.90;;;;;;5011022;28;20056;-69
2024/01/30 10:04:23;;;;;;;21.27;11.32;;;8.70;99.90;;;;;;5018301;28;20132;-69
2024/01/30 10:06:51;;;;;;;21.13;11.88;;;8.80;99.90;;;;;;5000488;28;20037;-68
2024/01/30 10:09:16;;;;;;;21.67;12.70;;;8.80;99.90;;;;;;5009893;28;20059;-69
2024/01/30 10:11:42;;;;;;;19.90;11.73;;;8.80;99.90;;;;;;5015564;28;20571;-69
2024/01/30 10:14:08;;;;;;;21.83;11.38;;;8.90;99.90;;;;;;5023553;28;20049;-68
2024/01/30 10:16:35;;;;;;;19.88;11.85;;;8.90;99.90;;;;;;5003085;28;20061;-68
2024/01/30 10:19:00;;;;;;;20.35;11.02;;;8.90;99.90;;;;;;5011877;28;20414;-69
2024/01/30 10:21:27;;;;;;;20.00;11.27;;;8.90;99.90;;;;;;4996673;28;20045;-70
2024/01/30 10:23:53;;;;;;;21.75;11.45;;;8.90;99.90;;;;;;4996026;28;20088;-69
2024/01/30 10:26:19;;;;;;;19.30;11.07;;;9.00;99.90;;;;;;4988742;28;20644;-70
2024/01/30 10:28:44;;;;;;;18.55;11.32;;;9.00;99.90;;;;;;4990269;28;20112;-69
2024/01/30 10:31:10;;;;;;;23.77;11.88;;;9.00;99.90;;;;;;4995941;28;20052;-68
2024/01/30 10:33:38;;;;;;;22.55;11.45;;;9.00;99.90;;;;;;5009806;28;20504;-68
2024/01/30 10:36:05;;;;;;;19.90;10.73;;;9.00;99.90;;;;;;5014958;28;20426;-68
2024/01/30 10:38:32;;;;;;;20.80;10.80;;;9.00;99.90;;;;;;5007716;28;20212;-69
2024/01/30 10:41:00;;;;;;;23.70;11.80;;;9.00;99.90;;;;;;5010777;28;20180;-69
2024/01/30 10:43:35;;;;;;;21.75;11.50;;;9.10;99.90;;;;;;5010185;28;20041;-69
2024/01/30 10:46:16;;;;;;;21.92;11.43;;;9.10;99.90;;;;;;5013256;28;20185;-69
2024/01/30 10:48:44;;;;;;;18.70;10.98;;;9.10;99.90;;;;;;5012846;28;20556;-69
2024/01/30 10:51:12;;;;;;;23.67;11.15;;;9.20;99.90;;;;;;5000596;28;20447;-69
2024/01/30 10:53:39;;;;;;;22.27;11.40;;;9.20;99.90;;;;;;5014082;28;20069;-68
2024/01/30 10:56:05;;;;;;;22.95;11.00;;;9.30;99.90;;;;;;5005739;28;20100;-68
2024/01/30 10:58:31;;;;;;;15.77;9.85;;;9.30;99.90;;;;;;5002518;28;20057;-69
2024/01/30 11:00:58;;;;;;;21.60;11.18;;;9.40;99.90;;;;;;5004944;28;20061;-68
2024/01/30 11:03:24;;;;;;;22.02;10.25;;;9.40;99.90;;;;;;5019310;28;20049;-68
2024/01/30 11:05:53;;;;;;;17.42;7.95;;;9.40;99.90;;;;;;5017705;28;20041;-68
2024/01/30 11:08:27;;;;;;;18.13;8.75;;;9.50;99.90;;;;;;5000725;28;20049;-69
2024/01/30 11:10:57;;;;;;;17.42;8.23;;;9.50;99.90;;;;;;5017129;28;20046;-68
2024/01/30 11:13:26;;;;;;;22.02;8.20;;;9.60;99.90;;;;;;5014848;28;20653;-68
2024/01/30 11:15:51;;;;;;;19.20;8.48;;;9.60;99.90;;;;;;5016447;28;21647;-69
2024/01/30 11:18:29;;;;;;;19.67;7.60;;;10.00;99.90;;;;;;5013939;28;20053;-68
2024/01/30 11:21:00;;;;;;;16.27;7.68;;;9.60;99.90;;;;;;5000671;28;20077;-68
2024/01/30 11:23:27;;;;;;;15.35;6.55;;;9.60;99.90;;;;;;5015103;28;20428;-69
2024/01/30 11:25:53;;;;;;;17.30;6.50;;;9.60;99.90;;;;;;5017797;28;20065;-68
2024/01/30 11:28:21;;;;;;;16.35;7.20;;;9.70;99.90;;;;;;5011872;28;20041;-68
2024/01/30 11:30:50;;;;;;;21.88;7.15;;;9.60;99.90;;;;;;5016578;28;20399;-68
2024/01/30 11:33:30;;;;;;;18.27;7.13;;;9.60;99.90;;;;;;5016932;28;20054;-68
2024/01/30 11:35:59;;;;;;;17.48;6.57;;;9.60;99.90;;;;;;5017999;28;20049;-69
2024/01/30 11:38:29;;;;;;;19.67;7.28;;;9.60;99.90;;;;;;5002993;28;20057;-69
2024/01/30 11:40:56;;;;;;;13.38;5.88;;;9.60;99.90;;;;;;5019498;28;20458;-69
2024/01/30 11:43:23;;;;;;;13.27;5.05;;;9.60;99.90;;;;;;5014364;28;20118;-69
2024/01/30 11:45:49;;;;;;;12.68;4.20;;;9.60;99.90;;;;;;5021769;28;20781;-67
2024/01/30 11:48:15;;;;;;;10.60;3.30;;;10.10;99.90;;;;;;5018592;28;20095;-69
2024/01/30 11:50:41;;;;;;;10.27;2.97;;;9.60;99.90;;;;;;5019787;28;20166;-68
2024/01/30 11:53:07;;;;;;;8.07;1.88;;;9.60;99.90;;;;;;5002177;28;20053;-68
2024/01/30 11:55:34;;;;;;;8.43;2.08;;;9.60;99.90;;;;;;5019970;28;20049;-68
2024/01/30 11:58:00;;;;;;;7.43;1.98;;;9.60;99.90;;;;;;5006076;28;20455;-67
2024/01/30 12:00:26;;;;;;;8.38;1.98;;;9.50;99.90;;;;;;5005328;28;20092;-68
2024/01/30 12:02:55;;;;;;;7.10;1.67;;;9.50;99.90;;;;;;5019943;28;20045;-68
2024/01/30 12:05:25;;;;;;;4.57;1.30;;;9.50;99.90;;;;;;5018940;28;20046;-67
2024/01/30 12:07:51;;;;;;;5.28;1.40;;;9.40;99.90;;;;;;5035719;28;20544;-68
2024/01/30 12:10:20;;;;;;;5.05;1.00;;;9.40;99.90;;;;;;5019200;28;20091;-68
2024/01/30 12:12:47;;;;;;;5.40;1.25;;;9.40;99.90;;;;;;5006622;28;20040;-68
2024/01/30 12:15:14;;;;;;;3.38;1.00;;;9.40;99.90;;;;;;5021815;28;20533;-68
2024/01/30 12:17:40;;;;;;;3.33;0.90;;;9.40;99.90;;;;;;5018721;28;20632;-67
2024/01/30 12:20:09;;;;;;;4.85;0.93;;;9.40;99.90;;;;;;5016804;28;20852;-68
2024/01/30 12:22:46;;;;;;;3.60;0.90;;;9.40;99.90;;;;;;5021792;28;20049;-67
2024/01/30 12:25:23;;;;;;;6.40;1.20;;;9.40;99.90;;;;;;5018929;28;20503;-68
2024/01/30 12:27:51;;;;;;;5.05;0.98;;;9.40;99.90;;;;;;5003002;28;20079;-68
2024/01/30 12:30:18;;;;;;;3.75;0.90;;;9.40;99.90;;;;;;5006255;28;20041;-68
2024/01/30 12:32:45;;;;;;;6.75;1.20;;;9.40;99.90;;;;;;5021391;28;20620;-68
2024/01/30 12:35:12;;;;;;;4.88;0.90;;;9.40;99.90;;;;;;5021589;28;20045;-68